Time;durP1;ratioP1;P1;durP2;ratioP2;P2;SDS_P1;SDS_P2;PMS_P1;PMS_P2;Temp;Humidity;BMP_temperature;BMP_pressure;BME280_temperature;BME280_humidity;BME280_pressure;Samples;Min_cycle;Max_cycle;Signal;HPM_P1;HPM_P2
2023/10/13 00:02:02;;;;;;;90.57;29.83;;;14.10;89.10;;;;;;5092589;28;20475;-72
2023/10/13 00:04:38;;;;;;;81.88;29.48;;;14.10;88.90;;;;;;5069124;28;20489;-71
2023/10/13 00:07:04;;;;;;;88.18;29.63;;;14.10;89.30;;;;;;5088106;28;20485;-72
2023/10/13 00:09:36;;;;;;;95.10;30.60;;;14.10;89.60;;;;;;5087689;28;20417;-71
2023/10/13 00:12:09;;;;;;;113.85;31.90;;;14.20;89.70;;;;;;5088583;28;20485;-73
2023/10/13 00:14:35;;;;;;;104.85;31.80;;;14.20;89.80;;;;;;5101312;28;20454;-71
2023/10/13 00:17:15;;;;;;;117.85;33.42;;;14.20;90.00;;;;;;5084994;28;20434;-70
2023/10/13 00:19:47;;;;;;;113.88;32.17;;;14.30;90.00;;;;;;5112798;28;20414;-70
2023/10/13 00:22:17;;;;;;;110.80;33.47;;;14.30;90.10;;;;;;5093186;28;20460;-71
2023/10/13 00:24:46;;;;;;;115.10;33.80;;;14.30;90.20;;;;;;5087358;28;20439;-71
2023/10/13 00:27:41;;;;;;;117.40;34.70;;;14.30;90.30;;;;;;5088088;28;20406;-70
2023/10/13 00:30:22;;;;;;;127.53;35.63;;;14.40;90.30;;;;;;5084107;28;20414;-70
2023/10/13 00:32:56;;;;;;;150.03;37.30;;;14.40;90.40;;;;;;5086961;28;20413;-70
2023/10/13 00:35:35;;;;;;;120.78;35.75;;;14.40;90.50;;;;;;5085378;28;20414;-70
2023/10/13 00:38:12;;;;;;;143.80;36.95;;;14.40;90.60;;;;;;5087709;28;20413;-70
2023/10/13 00:40:43;;;;;;;152.07;37.67;;;14.40;90.70;;;;;;5079255;28;20769;-70
2023/10/13 00:45:55;;;;;;;141.45;37.78;;;14.50;90.80;;;;;;5089502;28;20434;-70
2023/10/13 00:48:33;;;;;;;119.28;36.45;;;14.50;91.00;;;;;;5085878;28;20947;-70
2023/10/13 00:51:07;;;;;;;139.55;38.50;;;14.60;91.00;;;;;;5085693;28;20927;-70
2023/10/13 00:53:41;;;;;;;148.40;38.50;;;14.60;91.10;;;;;;5077029;28;20745;-70
2023/10/13 00:56:08;;;;;;;136.13;37.15;;;14.60;91.00;;;;;;5076808;28;20408;-71
2023/10/13 00:58:35;;;;;;;135.52;38.78;;;14.70;91.30;;;;;;5087763;28;20488;-71
2023/10/13 01:01:21;;;;;;;145.32;39.50;;;14.70;91.40;;;;;;5089364;28;20427;-70
2023/10/13 01:03:55;;;;;;;121.60;37.72;;;14.70;91.40;;;;;;5096126;28;20422;-70
2023/10/13 01:06:27;;;;;;;138.05;38.97;;;14.80;91.40;;;;;;5094197;28;20441;-71
2023/10/13 01:09:13;;;;;;;137.55;38.75;;;14.80;91.50;;;;;;5092293;28;20424;-71
2023/10/13 01:11:44;;;;;;;123.33;37.17;;;14.80;91.60;;;;;;5077744;28;20409;-71
2023/10/13 01:14:17;;;;;;;120.75;38.03;;;14.80;91.60;;;;;;5084422;28;20414;-70
2023/10/13 01:16:44;;;;;;;121.35;38.47;;;14.80;91.60;;;;;;5082065;28;20398;-71
2023/10/13 01:19:14;;;;;;;116.20;38.55;;;14.90;91.80;;;;;;5069205;28;20405;-71
2023/10/13 01:21:44;;;;;;;118.57;38.17;;;14.90;91.80;;;;;;5086983;28;20479;-71
2023/10/13 01:24:13;;;;;;;128.75;38.72;;;15.00;91.80;;;;;;5090584;28;20399;-71
2023/10/13 01:26:40;;;;;;;108.95;36.15;;;15.00;91.90;;;;;;5093017;28;20947;-71
2023/10/13 01:29:11;;;;;;;103.95;36.85;;;15.00;92.00;;;;;;5089626;28;20453;-71
2023/10/13 01:31:46;;;;;;;115.25;36.10;;;15.00;92.00;;;;;;5090174;28;20410;-71
2023/10/13 01:34:21;;;;;;;104.18;35.15;;;15.00;92.20;;;;;;5087903;28;20463;-71
2023/10/13 01:36:55;;;;;;;116.57;37.20;;;15.10;92.20;;;;;;5086744;28;20453;-70
2023/10/13 01:39:22;;;;;;;115.45;36.47;;;15.10;92.40;;;;;;5123361;27;20425;-71
2023/10/13 01:41:55;;;;;;;111.03;36.35;;;15.20;92.40;;;;;;5089136;28;20927;-70
2023/10/13 01:44:24;;;;;;;112.05;36.78;;;15.20;92.50;;;;;;5092009;28;20413;-71
2023/10/13 01:46:51;;;;;;;112.97;37.13;;;15.20;92.50;;;;;;5090496;28;20790;-71
2023/10/13 01:49:16;;;;;;;114.25;35.95;;;15.20;92.60;;;;;;5073355;28;20487;-71
2023/10/13 01:51:42;;;;;;;107.63;36.25;;;15.30;92.70;;;;;;5090777;28;20919;-71
2023/10/13 01:54:12;;;;;;;115.17;36.73;;;15.30;92.70;;;;;;5091503;28;20435;-71
2023/10/13 01:56:42;;;;;;;106.13;35.17;;;15.30;92.80;;;;;;5088231;28;20417;-71
2023/10/13 01:59:09;;;;;;;101.90;35.78;;;15.30;92.70;;;;;;5088108;28;20414;-71
2023/10/13 02:01:35;;;;;;;116.68;38.25;;;15.40;92.90;;;;;;5089619;28;20494;-71
2023/10/13 02:04:04;;;;;;;118.20;36.88;;;15.40;92.90;;;;;;5088684;28;20411;-71
2023/10/13 02:06:34;;;;;;;105.07;36.20;;;15.40;92.90;;;;;;5088479;28;20482;-71
2023/10/13 02:09:13;;;;;;;110.18;36.17;;;15.40;93.00;;;;;;5085883;28;20410;-71
2023/10/13 02:11:45;;;;;;;111.13;35.95;;;15.50;93.00;;;;;;5088568;28;20481;-71
2023/10/13 02:14:16;;;;;;;114.22;36.75;;;15.50;93.10;;;;;;5086786;28;20410;-71
2023/10/13 02:16:41;;;;;;;109.13;35.67;;;15.50;93.10;;;;;;5086723;28;20451;-71
2023/10/13 02:19:08;;;;;;;109.43;36.75;;;15.40;93.10;;;;;;5089667;28;20812;-71
2023/10/13 02:21:39;;;;;;;102.35;34.45;;;15.50;93.10;;;;;;5089421;28;20425;-71
2023/10/13 02:24:12;;;;;;;108.40;35.15;;;15.50;93.10;;;;;;5089719;28;20759;-71
2023/10/13 02:26:39;;;;;;;101.15;34.20;;;15.50;93.10;;;;;;5089186;28;20460;-71
2023/10/13 02:29:08;;;;;;;91.43;33.73;;;15.50;93.20;;;;;;5089226;28;20417;-71
2023/10/13 02:31:37;;;;;;;94.78;33.47;;;15.50;93.20;;;;;;5089384;28;20398;-71
2023/10/13 02:34:11;;;;;;;83.72;33.90;;;15.50;93.20;;;;;;5092512;28;20402;-71
2023/10/13 02:36:48;;;;;;;85.13;32.23;;;15.50;93.30;;;;;;5087872;28;20413;-71
2023/10/13 02:39:16;;;;;;;90.13;33.70;;;15.50;93.40;;;;;;5096266;28;20410;-71
2023/10/13 02:41:47;;;;;;;86.03;31.13;;;15.50;93.40;;;;;;5088787;28;20407;-71
2023/10/13 02:44:26;;;;;;;96.80;32.85;;;15.50;93.70;;;;;;5089831;28;20833;-71
2023/10/13 02:46:55;;;;;;;83.03;31.17;;;15.50;93.50;;;;;;5092412;28;20417;-71
2023/10/13 02:49:22;;;;;;;77.57;30.45;;;15.60;93.50;;;;;;5089018;28;20945;-71
2023/10/13 02:51:47;;;;;;;77.50;31.23;;;15.50;93.50;;;;;;5088507;28;20922;-71
2023/10/13 02:54:18;;;;;;;75.03;29.77;;;15.60;93.60;;;;;;5091204;28;20404;-71
2023/10/13 02:56:49;;;;;;;74.47;30.10;;;15.60;93.60;;;;;;5089047;28;20412;-72
2023/10/13 02:59:15;;;;;;;74.85;29.92;;;15.60;93.70;;;;;;5086622;28;20414;-73
2023/10/13 03:01:41;;;;;;;62.17;28.52;;;15.60;93.70;;;;;;5088849;28;20745;-73
2023/10/13 03:04:08;;;;;;;72.75;28.42;;;15.60;93.70;;;;;;5120454;27;20509;-73
2023/10/13 03:06:34;;;;;;;60.15;26.80;;;15.70;93.80;;;;;;5087566;28;20475;-72
2023/10/13 03:09:18;;;;;;;64.95;26.55;;;15.70;93.80;;;;;;5087612;28;20484;-72
2023/10/13 03:11:49;;;;;;;46.53;22.40;;;15.70;93.80;;;;;;5092121;28;20416;-72
2023/10/13 03:14:31;;;;;;;35.20;18.08;;;15.70;93.90;;;;;;5089379;28;20398;-73
2023/10/13 03:17:02;;;;;;;31.27;17.20;;;15.80;93.90;;;;;;5088485;28;20401;-72
2023/10/13 03:19:32;;;;;;;35.10;17.17;;;15.80;93.80;;;;;;5076888;28;20436;-72
2023/10/13 03:22:06;;;;;;;35.88;17.92;;;15.90;93.90;;;;;;5087114;28;20923;-72
2023/10/13 03:24:35;;;;;;;41.20;18.75;;;15.90;93.90;;;;;;5088509;28;20962;-72
2023/10/13 03:27:08;;;;;;;46.60;18.88;;;15.90;94.00;;;;;;5088484;28;20401;-72
2023/10/13 03:29:44;;;;;;;43.03;20.08;;;15.90;94.00;;;;;;5092077;28;20420;-72
2023/10/13 03:32:16;;;;;;;41.53;19.70;;;15.90;94.00;;;;;;5087488;28;20430;-72
2023/10/13 03:37:35;;;;;;;46.83;20.00;;;16.00;94.20;;;;;;5087905;28;20946;-72
2023/10/13 03:40:06;;;;;;;52.97;20.48;;;15.90;94.10;;;;;;5078554;28;20511;-72
2023/10/13 03:42:32;;;;;;;55.58;20.85;;;15.90;94.20;;;;;;5087614;28;20452;-72
2023/10/13 03:44:58;;;;;;;61.13;22.52;;;15.90;94.20;;;;;;5088254;28;20418;-72
2023/10/13 03:47:26;;;;;;;55.63;22.77;;;15.90;94.20;;;;;;5087984;28;20822;-72
2023/10/13 03:52:40;;;;;;;67.03;26.45;;;15.90;94.20;;;;;;5087113;28;20417;-72
2023/10/13 03:55:07;;;;;;;66.00;28.77;;;15.90;94.40;;;;;;5086933;28;20405;-72
2023/10/13 03:57:38;;;;;;;80.03;29.77;;;16.00;94.40;;;;;;5075320;28;20486;-72
2023/10/13 04:00:21;;;;;;;77.70;30.30;;;16.00;94.50;;;;;;5088179;28;20414;-72
2023/10/13 04:03:03;;;;;;;77.85;32.30;;;16.00;94.50;;;;;;5087868;28;20787;-71
2023/10/13 04:05:44;;;;;;;76.57;31.73;;;16.00;94.50;;;;;;5087306;28;20422;-71
2023/10/13 04:21:39;;;;;;;67.90;27.50;;;16.10;94.60;;;;;;5095676;28;20968;-72
2023/10/13 04:32:15;;;;;;;69.53;25.20;;;16.00;94.70;;;;;;5087762;28;20466;-71
2023/10/13 04:34:45;;;;;;;51.55;22.20;;;16.10;94.80;;;;;;5084432;28;20411;-71
2023/10/13 04:37:33;;;;;;;54.42;22.83;;;16.10;94.80;;;;;;5080225;28;20783;-71
2023/10/13 04:40:11;;;;;;;59.13;23.50;;;16.00;94.70;;;;;;5108673;28;20437;-71
2023/10/13 04:42:49;;;;;;;55.60;22.58;;;16.00;94.70;;;;;;5086017;28;20425;-71
2023/10/13 04:50:51;;;;;;;55.37;21.67;;;16.10;94.90;;;;;;5087351;28;20406;-71
2023/10/13 04:53:33;;;;;;;57.05;22.55;;;16.10;94.90;;;;;;5088870;28;20961;-71
2023/10/13 04:56:08;;;;;;;64.15;22.45;;;16.10;94.90;;;;;;5087220;28;20484;-71
2023/10/13 06:28:40;;;;;;;21.33;9.65;;;15.90;95.40;;;;;;5078835;28;20489;-71
2023/10/13 06:31:07;;;;;;;18.13;10.18;;;15.90;95.50;;;;;;5089672;28;20417;-71
2023/10/13 06:33:34;;;;;;;19.42;10.10;;;15.90;95.50;;;;;;5087841;28;20930;-71
2023/10/13 06:36:03;;;;;;;26.17;11.23;;;15.90;95.60;;;;;;5089514;28;20442;-71
2023/10/13 06:38:36;;;;;;;18.13;10.10;;;15.90;95.60;;;;;;5089204;28;20767;-71
2023/10/13 06:41:05;;;;;;;17.60;9.73;;;15.80;95.60;;;;;;5089162;28;20445;-71
2023/10/13 06:43:42;;;;;;;17.38;9.52;;;15.90;95.70;;;;;;5088192;28;20490;-71
2023/10/13 06:46:16;;;;;;;14.65;8.25;;;15.90;95.70;;;;;;5087809;28;20426;-71
2023/10/13 06:48:43;;;;;;;14.10;8.05;;;15.90;95.60;;;;;;5089057;28;20493;-71
2023/10/13 06:51:18;;;;;;;12.88;7.65;;;15.80;95.60;;;;;;5082056;28;20989;-71
2023/10/13 06:53:47;;;;;;;13.30;7.30;;;15.90;95.60;;;;;;5083172;28;20394;-71
2023/10/13 06:56:25;;;;;;;11.90;7.07;;;15.80;95.70;;;;;;5089717;28;20760;-71
2023/10/13 06:58:51;;;;;;;11.30;7.03;;;15.80;95.50;;;;;;5088915;28;20435;-71
2023/10/13 07:01:21;;;;;;;12.23;7.00;;;15.90;95.60;;;;;;5089500;28;20477;-71
2023/10/13 07:03:52;;;;;;;12.02;7.13;;;15.80;95.70;;;;;;5089012;28;20401;-71
2023/10/13 07:06:19;;;;;;;12.27;7.15;;;15.90;95.70;;;;;;5087807;28;20434;-71
2023/10/13 07:08:51;;;;;;;10.48;6.80;;;15.90;95.80;;;;;;5088494;28;20767;-71
2023/10/13 07:11:32;;;;;;;11.60;6.95;;;15.90;95.80;;;;;;5089112;28;20443;-71
2023/10/13 07:13:59;;;;;;;10.02;6.38;;;15.90;95.90;;;;;;5089208;28;20402;-72
2023/10/13 07:16:35;;;;;;;11.15;6.75;;;16.00;95.90;;;;;;5088781;28;20500;-72
2023/10/13 07:19:05;;;;;;;8.03;5.67;;;16.00;96.00;;;;;;5089238;28;20413;-72
2023/10/13 07:21:32;;;;;;;7.72;5.15;;;16.00;96.00;;;;;;5085865;28;20412;-71
2023/10/13 07:24:07;;;;;;;7.53;4.97;;;16.10;96.10;;;;;;5088946;28;20398;-71
2023/10/13 07:26:33;;;;;;;9.23;4.82;;;16.10;96.10;;;;;;5087634;28;20474;-72
2023/10/13 07:29:00;;;;;;;8.13;4.70;;;16.10;96.10;;;;;;5088558;28;20398;-72
2023/10/13 07:31:27;;;;;;;9.40;5.18;;;16.10;96.10;;;;;;5087005;28;20413;-73
2023/10/13 07:33:56;;;;;;;8.20;4.93;;;16.20;96.10;;;;;;5087285;28;20431;-72
2023/10/13 07:38:59;;;;;;;10.35;5.40;;;16.20;96.00;;;;;;5088470;28;20404;-72
2023/10/13 07:41:30;;;;;;;10.32;5.68;;;16.20;96.20;;;;;;5087733;28;20402;-72
2023/10/13 07:43:57;;;;;;;9.10;5.30;;;16.20;96.20;;;;;;5086558;28;20402;-72
2023/10/13 07:46:31;;;;;;;9.32;5.35;;;16.20;96.30;;;;;;5088280;28;20505;-72
2023/10/13 07:49:08;;;;;;;13.57;5.90;;;16.20;96.30;;;;;;5087995;28;20776;-72
2023/10/13 07:51:40;;;;;;;11.98;5.88;;;16.20;96.40;;;;;;5077833;28;20403;-72
2023/10/13 07:54:11;;;;;;;11.93;5.25;;;16.20;96.30;;;;;;5086746;28;20483;-72
2023/10/13 07:56:39;;;;;;;11.32;5.40;;;16.30;96.30;;;;;;5088122;28;20512;-73
2023/10/13 07:59:09;;;;;;;11.43;5.60;;;16.30;96.30;;;;;;5086485;28;20409;-73
2023/10/13 08:01:34;;;;;;;12.23;5.80;;;16.30;96.20;;;;;;5086763;28;20402;-73
2023/10/13 08:04:11;;;;;;;12.53;5.67;;;16.30;96.10;;;;;;5082623;28;20422;-72
2023/10/13 08:06:40;;;;;;;9.83;5.20;;;16.30;96.20;;;;;;5082543;28;20457;-72
2023/10/13 08:09:09;;;;;;;10.07;5.68;;;16.30;96.00;;;;;;5087770;28;20394;-71
2023/10/13 08:11:37;;;;;;;13.85;5.95;;;16.20;96.00;;;;;;5087657;28;20401;-71
2023/10/13 08:16:59;;;;;;;11.55;5.78;;;16.20;95.90;;;;;;5087613;28;20410;-71
2023/10/13 08:19:45;;;;;;;13.15;6.03;;;16.20;96.00;;;;;;5086925;28;20398;-71
2023/10/13 08:40:19;;;;;;;11.27;5.70;;;16.20;95.90;;;;;;5090462;28;20406;-71
2023/10/13 08:56:05;;;;;;;14.48;6.00;;;16.40;95.90;;;;;;5091326;28;20402;-72
2023/10/13 08:59:22;;;;;;;13.15;5.70;;;16.40;96.00;;;;;;5090957;28;20495;-72
2023/10/13 09:09:59;;;;;;;18.33;7.40;;;16.60;96.00;;;;;;5090835;28;20957;-73
2023/10/13 09:15:03;;;;;;;18.98;8.00;;;16.70;96.10;;;;;;5090885;28;20405;-72
2023/10/13 09:20:35;;;;;;;15.40;7.20;;;16.90;96.30;;;;;;5090662;28;20769;-72
2023/10/13 09:23:08;;;;;;;14.50;6.70;;;17.00;96.30;;;;;;5090140;28;20414;-72
2023/10/13 09:25:53;;;;;;;14.05;6.65;;;17.10;96.30;;;;;;5090920;28;20426;-72
2023/10/13 09:28:25;;;;;;;13.73;6.63;;;17.10;96.40;;;;;;5090502;28;20425;-72
2023/10/13 09:30:58;;;;;;;16.08;6.70;;;17.20;96.00;;;;;;5090202;28;20888;-72
2023/10/13 09:33:32;;;;;;;13.45;7.07;;;17.20;96.20;;;;;;5078958;28;20441;-72
2023/10/13 09:35:59;;;;;;;12.18;6.78;;;17.40;97.20;;;;;;5090778;28;20406;-72
2023/10/13 09:38:28;;;;;;;16.23;6.77;;;17.60;96.70;;;;;;5089151;28;20410;-72
2023/10/13 09:40:57;;;;;;;12.80;6.57;;;17.70;96.40;;;;;;5090102;28;20402;-72
2023/10/13 09:43:25;;;;;;;14.38;6.47;;;17.70;95.50;;;;;;5090197;28;20482;-72
2023/10/13 09:49:06;;;;;;;11.85;6.15;;;17.90;96.20;;;;;;5049133;28;20498;-72
2023/10/13 09:51:32;;;;;;;12.55;5.50;;;18.00;95.40;;;;;;5090133;28;20434;-72
2023/10/13 09:54:11;;;;;;;13.73;5.47;;;18.10;95.20;;;;;;5089727;28;21518;-72
2023/10/13 09:56:51;;;;;;;13.68;5.35;;;18.20;95.30;;;;;;5089550;28;20493;-73
2023/10/13 09:59:34;;;;;;;15.25;6.00;;;18.20;94.70;;;;;;5078281;28;21014;-72
2023/10/13 10:02:08;;;;;;;15.95;6.22;;;18.30;94.10;;;;;;5088886;28;20767;-72
2023/10/13 10:04:41;;;;;;;10.63;5.30;;;18.30;94.30;;;;;;5089999;28;20908;-72
2023/10/13 10:07:08;;;;;;;11.05;5.68;;;18.50;95.20;;;;;;5089665;28;20831;-72
2023/10/13 10:09:34;;;;;;;10.37;5.00;;;18.70;95.20;;;;;;5089401;28;20432;-72
2023/10/13 10:12:42;;;;;;;9.23;4.72;;;18.90;94.70;;;;;;5089690;28;20494;-72
2023/10/13 10:15:30;;;;;;;14.15;5.30;;;19.00;92.90;;;;;;5088294;28;20969;-72
2023/10/13 10:17:56;;;;;;;9.57;5.35;;;19.00;92.30;;;;;;5089449;28;20402;-72
2023/10/13 10:20:42;;;;;;;11.65;4.85;;;19.00;92.60;;;;;;5089385;28;20548;-72
2023/10/13 10:23:17;;;;;;;11.27;4.78;;;19.00;92.20;;;;;;5087882;28;20606;-73
2023/10/13 10:25:46;;;;;;;13.88;5.40;;;19.00;91.70;;;;;;5089134;28;20429;-73
2023/10/13 10:28:15;;;;;;;11.52;4.93;;;18.90;91.70;;;;;;5089549;28;20401;-72
2023/10/13 10:30:43;;;;;;;14.52;4.85;;;18.80;91.60;;;;;;5089722;28;20390;-73
2023/10/13 10:33:15;;;;;;;14.07;5.10;;;18.80;91.70;;;;;;5088670;28;20454;-73
2023/10/13 10:35:43;;;;;;;12.40;4.75;;;18.80;91.60;;;;;;5088890;28;20406;-72
2023/10/13 10:40:58;;;;;;;13.48;4.45;;;18.80;91.60;;;;;;5089086;28;20556;-73
2023/10/13 10:43:43;;;;;;;13.20;4.80;;;18.80;91.60;;;;;;5088659;28;20438;-73
2023/10/13 10:46:18;;;;;;;11.03;4.83;;;18.70;91.80;;;;;;5089066;28;20505;-72
2023/10/13 10:48:47;;;;;;;12.67;4.30;;;18.70;91.70;;;;;;5088724;28;20410;-73
2023/10/13 10:53:47;;;;;;;13.27;4.47;;;19.00;92.20;;;;;;5088942;28;20398;-73
2023/10/13 10:56:20;;;;;;;14.80;4.23;;;19.10;91.40;;;;;;5077806;28;20398;-73
2023/10/13 10:58:54;;;;;;;12.00;4.57;;;19.20;90.90;;;;;;5088790;28;20454;-73
2023/10/13 11:01:21;;;;;;;11.73;3.83;;;19.40;90.40;;;;;;5080111;28;20434;-73
2023/10/13 11:03:59;;;;;;;10.40;4.10;;;19.40;88.40;;;;;;5087108;28;20398;-73
2023/10/13 11:06:26;;;;;;;15.18;4.85;;;19.50;86.10;;;;;;5088750;28;20426;-73
2023/10/13 11:09:18;;;;;;;14.23;4.53;;;19.40;84.90;;;;;;5088363;28;20456;-72
2023/10/13 11:11:45;;;;;;;11.07;4.00;;;19.40;84.70;;;;;;5088540;28;20410;-73
2023/10/13 11:14:23;;;;;;;13.40;4.38;;;19.40;85.20;;;;;;5088859;28;20975;-73
2023/10/13 11:16:50;;;;;;;15.43;4.28;;;19.40;85.00;;;;;;5088805;28;20398;-73
2023/10/13 11:19:40;;;;;;;14.30;4.30;;;19.60;88.00;;;;;;5087412;28;20915;-73
2023/10/13 11:22:29;;;;;;;12.27;4.20;;;20.40;90.30;;;;;;5088854;28;20475;-73
2023/10/13 11:25:09;;;;;;;10.88;4.25;;;20.90;81.00;;;;;;5087976;28;20414;-73
2023/10/13 11:30:25;;;;;;;14.18;4.20;;;20.70;71.00;;;;;;5076369;28;20417;-73
2023/10/13 11:33:05;;;;;;;11.30;3.90;;;20.50;70.20;;;;;;5088111;28;20532;-73
2023/10/13 11:38:26;;;;;;;14.15;5.13;;;20.10;70.30;;;;;;5077203;28;20806;-73
2023/10/13 11:51:46;;;;;;;12.20;4.00;;;20.00;72.70;;;;;;5088209;28;20499;-73
2023/10/13 11:54:22;;;;;;;14.38;4.25;;;20.10;71.90;;;;;;5087821;28;20745;-74
2023/10/13 11:56:49;;;;;;;12.75;4.00;;;20.10;69.80;;;;;;5069654;28;20483;-73
2023/10/13 11:59:18;;;;;;;14.30;4.35;;;20.10;65.70;;;;;;5085154;28;20760;-73
2023/10/13 12:04:51;;;;;;;15.43;4.83;;;19.90;66.30;;;;;;5078814;28;20466;-73
2023/10/13 12:07:19;;;;;;;13.75;4.50;;;19.80;67.70;;;;;;5087184;28;20418;-73
2023/10/13 12:12:26;;;;;;;14.10;5.10;;;19.50;69.90;;;;;;5076932;28;20433;-73
2023/10/13 12:14:52;;;;;;;14.50;4.90;;;19.40;71.10;;;;;;5087547;28;20398;-73
2023/10/13 12:17:25;;;;;;;16.17;5.00;;;19.30;72.70;;;;;;5086466;28;20473;-73
2023/10/13 12:19:54;;;;;;;14.07;5.47;;;19.30;74.50;;;;;;5088185;28;20429;-72
2023/10/13 12:22:38;;;;;;;18.73;5.32;;;19.20;75.70;;;;;;5088010;28;20422;-73
2023/10/13 12:25:18;;;;;;;15.70;5.60;;;19.20;77.10;;;;;;5087677;28;20961;-72
2023/10/13 12:27:48;;;;;;;14.05;5.32;;;19.20;78.10;;;;;;5087426;28;21176;-73
2023/10/13 12:30:22;;;;;;;14.73;4.53;;;19.30;79.00;;;;;;5087718;28;20764;-72
2023/10/13 12:32:58;;;;;;;15.68;4.97;;;19.40;78.70;;;;;;5087689;28;20390;-73
2023/10/13 12:35:34;;;;;;;11.25;4.88;;;19.40;77.60;;;;;;5086866;28;21239;-73
2023/10/13 12:38:16;;;;;;;15.23;5.20;;;19.50;76.70;;;;;;5087720;28;20948;-73
2023/10/13 12:49:04;;;;;;;15.00;5.07;;;19.70;73.10;;;;;;5087319;28;20500;-74
2023/10/13 12:54:13;;;;;;;13.07;5.18;;;19.70;70.60;;;;;;5087348;28;20405;-73
2023/10/13 12:56:41;;;;;;;13.60;4.73;;;19.60;68.90;;;;;;5086125;28;20437;-73
2023/10/13 12:59:09;;;;;;;15.85;5.03;;;19.60;68.10;;;;;;5087563;28;20421;-73
2023/10/13 13:01:34;;;;;;;15.20;5.25;;;19.50;68.50;;;;;;5086829;28;20402;-73
2023/10/13 13:04:03;;;;;;;16.17;5.50;;;19.50;69.10;;;;;;5087760;28;20390;-73
2023/10/13 13:06:30;;;;;;;15.07;5.88;;;19.40;70.20;;;;;;5087139;28;20715;-72
2023/10/13 13:09:00;;;;;;;14.07;5.70;;;19.30;71.30;;;;;;5085963;28;20406;-73
2023/10/13 13:11:28;;;;;;;16.98;5.93;;;19.30;72.20;;;;;;5086460;28;20402;-73
2023/10/13 13:13:54;;;;;;;16.15;5.85;;;19.20;73.00;;;;;;5075464;28;20414;-73
2023/10/13 13:16:30;;;;;;;14.73;5.43;;;19.10;73.60;;;;;;5085440;28;20776;-73
2023/10/13 13:18:56;;;;;;;12.47;5.60;;;19.10;74.10;;;;;;5089031;28;20406;-72
2023/10/13 13:21:24;;;;;;;16.55;6.03;;;19.00;74.70;;;;;;5090715;28;20405;-73
2023/10/13 13:23:51;;;;;;;15.67;6.33;;;19.00;75.50;;;;;;5089518;28;20410;-73
2023/10/13 13:26:17;;;;;;;16.60;6.78;;;19.00;76.40;;;;;;5090789;28;20429;-73
2023/10/13 13:28:44;;;;;;;16.15;6.65;;;18.90;77.00;;;;;;5071795;28;20448;-73
2023/10/13 13:31:12;;;;;;;18.33;7.35;;;18.80;77.60;;;;;;5090817;28;20842;-72
2023/10/13 13:33:38;;;;;;;17.35;7.47;;;18.80;78.40;;;;;;5090631;28;20907;-72
2023/10/13 13:36:13;;;;;;;17.13;6.80;;;18.70;79.70;;;;;;5076048;28;20402;-72
2023/10/13 13:38:40;;;;;;;16.52;7.10;;;18.70;80.10;;;;;;5090730;28;20490;-72
2023/10/13 13:41:18;;;;;;;17.70;7.03;;;18.60;80.90;;;;;;5090049;28;20744;-72
2023/10/13 13:43:54;;;;;;;16.55;7.32;;;18.60;81.30;;;;;;5090904;28;20797;-72
2023/10/13 13:46:24;;;;;;;15.43;7.30;;;18.50;82.70;;;;;;5091005;28;20455;-72
2023/10/13 13:48:51;;;;;;;20.40;7.45;;;18.50;82.90;;;;;;5089440;28;20406;-72
2023/10/13 13:51:26;;;;;;;18.02;8.02;;;18.40;83.90;;;;;;5090697;28;20394;-72
2023/10/13 13:53:52;;;;;;;15.70;7.73;;;18.40;84.00;;;;;;5090114;28;20399;-72
2023/10/13 13:56:18;;;;;;;16.80;7.90;;;18.40;85.20;;;;;;5090535;28;20413;-72
2023/10/13 13:59:08;;;;;;;15.30;7.78;;;18.30;85.40;;;;;;5089977;28;20405;-73
2023/10/13 14:01:37;;;;;;;17.13;7.60;;;18.30;86.00;;;;;;5089989;28;20907;-72
2023/10/13 14:04:06;;;;;;;17.58;8.02;;;18.30;86.90;;;;;;5089387;28;20552;-72
2023/10/13 14:06:33;;;;;;;16.43;8.20;;;18.30;87.40;;;;;;5089795;28;20430;-73
2023/10/13 14:09:02;;;;;;;16.95;8.20;;;18.30;87.50;;;;;;5088884;28;20422;-72
2023/10/13 14:14:12;;;;;;;14.70;7.50;;;18.30;88.10;;;;;;5090909;28;20449;-73
2023/10/13 14:16:47;;;;;;;15.70;7.38;;;18.40;88.10;;;;;;5089449;28;20402;-73
2023/10/13 14:19:46;;;;;;;17.77;7.78;;;18.40;87.10;;;;;;5090320;28;20432;-73
2023/10/13 14:22:11;;;;;;;18.63;7.50;;;18.40;88.10;;;;;;5085196;28;20402;-72
2023/10/13 14:24:43;;;;;;;17.13;7.50;;;18.40;87.90;;;;;;5089796;28;20398;-72
2023/10/13 14:27:17;;;;;;;15.73;7.07;;;18.50;88.00;;;;;;5088576;28;20426;-72
2023/10/13 14:29:43;;;;;;;15.00;6.97;;;18.60;87.60;;;;;;5089214;28;20469;-73
2023/10/13 14:32:13;;;;;;;15.98;6.97;;;18.60;87.20;;;;;;5090199;28;20809;-72
2023/10/13 14:34:40;;;;;;;16.73;7.90;;;18.60;86.50;;;;;;5086032;28;20465;-73
2023/10/13 14:37:06;;;;;;;13.93;6.90;;;18.60;86.30;;;;;;5081140;28;20413;-73
2023/10/13 14:39:34;;;;;;;15.77;6.75;;;18.70;85.70;;;;;;5088046;28;20899;-73
2023/10/13 14:42:02;;;;;;;15.27;6.80;;;18.70;85.10;;;;;;5088822;28;20408;-72
2023/10/13 14:44:28;;;;;;;19.25;7.05;;;18.70;84.80;;;;;;5088877;28;20406;-74
2023/10/13 14:46:56;;;;;;;17.55;7.00;;;18.70;84.40;;;;;;5089460;28;20578;-73
2023/10/13 14:49:22;;;;;;;15.43;6.38;;;18.70;84.30;;;;;;5089939;28;20433;-73
2023/10/13 14:51:49;;;;;;;15.23;6.85;;;18.70;84.20;;;;;;5089676;28;20430;-72
2023/10/13 14:54:15;;;;;;;18.33;7.30;;;18.70;84.30;;;;;;5088624;28;20937;-73
2023/10/13 14:56:42;;;;;;;16.63;7.18;;;18.70;84.20;;;;;;5088835;28;20447;-72
2023/10/13 14:59:16;;;;;;;15.80;6.43;;;18.60;83.70;;;;;;5070877;28;21207;-73
2023/10/13 15:01:42;;;;;;;15.40;7.07;;;18.70;83.60;;;;;;5086484;28;20406;-72
2023/10/13 15:04:08;;;;;;;18.80;7.13;;;18.60;83.20;;;;;;5089178;28;20459;-73
2023/10/13 15:06:34;;;;;;;17.70;6.78;;;18.60;83.20;;;;;;5088911;28;20451;-72
2023/10/13 15:09:00;;;;;;;16.57;6.87;;;18.60;83.10;;;;;;5089246;28;20398;-72
2023/10/13 15:11:35;;;;;;;18.77;6.95;;;18.60;83.20;;;;;;5088740;28;20409;-73
2023/10/13 15:14:02;;;;;;;19.05;7.47;;;18.60;83.00;;;;;;5089116;28;20398;-73
2023/10/13 15:16:28;;;;;;;17.88;6.85;;;18.60;82.90;;;;;;5088698;28;20404;-73
2023/10/13 15:18:54;;;;;;;19.00;6.47;;;18.60;82.60;;;;;;5088856;28;20410;-74
2023/10/13 15:21:34;;;;;;;19.95;7.45;;;18.60;82.80;;;;;;5088708;28;20470;-72
2023/10/13 15:24:04;;;;;;;19.98;7.50;;;18.50;83.00;;;;;;5096803;28;20417;-70
2023/10/13 15:26:37;;;;;;;16.33;7.13;;;18.40;83.40;;;;;;5087721;28;20465;-71
2023/10/13 15:29:09;;;;;;;18.00;8.20;;;18.20;85.00;;;;;;5086839;28;20408;-70
2023/10/13 15:34:14;;;;;;;20.50;8.75;;;18.00;87.90;;;;;;5087888;28;20425;-70
2023/10/13 15:36:42;;;;;;;20.05;7.90;;;18.00;89.10;;;;;;5087805;28;20459;-71
2023/10/13 15:39:10;;;;;;;20.52;8.57;;;17.90;90.20;;;;;;5090107;28;20402;-71
2023/10/13 15:41:40;;;;;;;18.27;8.70;;;17.80;90.20;;;;;;5110888;27;20945;-71
2023/10/13 15:44:10;;;;;;;18.98;8.93;;;17.80;90.60;;;;;;5089577;28;20410;-71
2023/10/13 15:46:37;;;;;;;17.55;8.82;;;17.80;91.00;;;;;;5087900;28;20440;-71
2023/10/13 15:49:05;;;;;;;18.85;8.40;;;17.80;91.50;;;;;;5089694;28;21345;-71
2023/10/13 15:51:41;;;;;;;19.30;9.65;;;17.80;91.70;;;;;;5088158;28;20434;-71
2023/10/13 15:54:16;;;;;;;19.25;9.32;;;17.70;92.00;;;;;;5087916;28;20402;-71
2023/10/13 15:56:43;;;;;;;16.80;8.73;;;17.70;92.30;;;;;;5088172;28;20409;-71
2023/10/13 15:59:09;;;;;;;18.50;9.40;;;17.70;92.40;;;;;;5088636;28;20428;-71
2023/10/13 16:01:35;;;;;;;20.05;9.32;;;17.70;92.60;;;;;;5072157;28;20414;-71
2023/10/13 16:04:10;;;;;;;19.60;9.00;;;17.80;92.80;;;;;;5087582;28;20429;-71
2023/10/13 16:06:37;;;;;;;15.93;8.75;;;17.70;92.90;;;;;;5103396;28;20436;-71
2023/10/13 16:09:03;;;;;;;20.65;9.90;;;17.80;93.00;;;;;;5087678;28;20489;-71
2023/10/13 16:11:29;;;;;;;21.27;9.55;;;17.70;93.00;;;;;;5092893;28;20406;-71
2023/10/13 16:13:54;;;;;;;20.50;9.20;;;17.70;93.00;;;;;;5090780;28;20435;-71
2023/10/13 16:16:24;;;;;;;21.02;9.25;;;17.80;93.00;;;;;;5093599;28;20417;-71
2023/10/13 16:18:51;;;;;;;22.25;9.95;;;17.80;93.10;;;;;;5100645;28;20450;-72
2023/10/13 16:21:17;;;;;;;21.77;9.02;;;17.80;93.10;;;;;;5103081;28;20412;-72
2023/10/13 16:23:51;;;;;;;21.83;9.53;;;17.80;93.00;;;;;;5088056;28;20406;-71
2023/10/13 16:26:21;;;;;;;18.85;8.93;;;17.70;93.30;;;;;;5092023;28;20432;-71
2023/10/13 16:28:58;;;;;;;19.20;9.70;;;17.80;93.20;;;;;;5086766;28;20417;-71
2023/10/13 16:31:27;;;;;;;18.42;8.57;;;17.80;93.20;;;;;;5087909;28;20772;-71
2023/10/13 16:33:59;;;;;;;17.08;8.48;;;17.80;93.00;;;;;;5069601;28;20442;-71
2023/10/13 16:36:25;;;;;;;19.00;7.40;;;17.80;93.10;;;;;;5090629;28;20422;-71
2023/10/13 16:38:51;;;;;;;16.60;7.90;;;17.70;93.20;;;;;;5087959;28;20437;-71